Ana Sayfa
METAR-TAF:

METAR-TAF

Havaalanları :

Lexington, Kuzey Carolina, Amerika Birleşik Devletleri

Enlem: 35-46-52N, Boylam: 080-18-14W, yükseklik: 223 m

Güncel hava durumu gözlemi

Rapor saat 21:35 UTC de 21 dakika önce yapıldı.
Rüzgar kuzeydoğudan 9 kt ve 16 kt'a kadar ani rüzgarlar, kuzey ve doğu/kuzeydoğu arasında değişken
Sıcaklık 9°C
Nem 43%
Basınç 1020 hPa
Görüş mesafesi: 16.1 km
6500 ft yükseklikte çok bulutlu

METAR: KEXX 162135Z AUTO 04009G16KT 010V070 10SM OVC065 09/M03 A3011 RMK AO2 T00911030

Saat: 16:56 (21:56 UTC)


TAF: eksik

4.000'den fazla havaalanı için hava durumu gözlemleri ve tahminleri (METAR ve TAF raporları).

Kullanılabilir istasyonlar harita üzerinde sarı ve kırmızı noktalarla gösterilir.

İstasyonun adını görmek için fareyi noktanın üzerinde gezdirin.

Sonrasında hava gözlem ve tahminlerini görmek için tıklayın.

Haritayı değiştirmek için: yaklaştırmak için siyah artı işaretli yeşil düğmeye ve uzaklaştırmak için de eksi işaretli düğmeye hızla tıklayın; bitişik haritalar için yeşil okları kullanın.


METAR-TAF: